createdAt,value
2022-09-24T00:16:23.412Z,11.50
2022-09-24T00:18:53.684Z,11.50
2022-09-24T00:21:23.374Z,11.50
2022-09-24T00:23:52.962Z,11.50
2022-09-24T00:26:38.686Z,11.50
2022-09-24T00:29:06.975Z,11.50
2022-09-24T00:31:35.343Z,11.50
2022-09-24T00:34:05.315Z,11.40
2022-09-24T00:36:33.418Z,11.40
2022-09-24T00:39:01.937Z,11.50
2022-09-24T00:41:33.353Z,11.30
2022-09-24T00:44:01.939Z,11.30
2022-09-24T00:46:39.273Z,11.30
2022-09-24T00:49:15.205Z,11.30
2022-09-24T00:51:44.976Z,11.40
2022-09-24T00:54:17.360Z,11.40
2022-09-24T00:56:46.768Z,11.30
2022-09-24T00:59:18.000Z,11.20
2022-09-24T01:01:47.572Z,11.20
2022-09-24T01:04:21.165Z,11.20
2022-09-24T01:06:49.745Z,11.30
2022-09-24T01:09:18.417Z,11.20
2022-09-24T01:11:54.607Z,11.20
2022-09-24T01:14:39.681Z,11.20
2022-09-24T01:17:16.584Z,11.20
2022-09-24T01:20:27.930Z,11.20
2022-09-24T01:23:25.018Z,11.20
2022-09-24T01:26:07.794Z,11.10
2022-09-24T01:28:52.382Z,11.40
2022-09-24T01:31:28.422Z,11.10
2022-09-24T01:34:00.293Z,11.10
2022-09-24T01:36:31.342Z,11.00
2022-09-24T01:39:02.431Z,10.80
2022-09-24T01:41:30.657Z,11.00
2022-09-24T01:44:00.971Z,10.90
2022-09-24T01:46:31.850Z,10.90
2022-09-24T01:49:00.029Z,11.10
2022-09-24T01:51:31.879Z,10.90
2022-09-24T01:54:06.877Z,10.90
2022-09-24T01:56:39.776Z,10.90
2022-09-24T01:59:15.117Z,11.00
2022-09-24T02:01:50.300Z,10.90
2022-09-24T02:04:20.781Z,10.90
2022-09-24T02:06:56.506Z,11.00
2022-09-24T02:09:32.504Z,10.90
2022-09-24T02:12:07.327Z,10.90
2022-09-24T02:14:41.105Z,10.90
2022-09-24T02:17:12.160Z,10.80
2022-09-24T02:19:42.817Z,10.80
2022-09-24T02:22:13.819Z,10.80
2022-09-24T02:24:46.636Z,10.80
2022-09-24T02:27:14.793Z,10.70
2022-09-24T02:29:42.742Z,10.80
2022-09-24T02:32:16.535Z,10.80
2022-09-24T02:34:48.917Z,10.70
2022-09-24T02:37:18.193Z,10.80
2022-09-24T02:39:46.176Z,10.90
2022-09-24T02:42:15.685Z,10.80
2022-09-24T02:44:43.773Z,10.70
2022-09-24T02:47:13.226Z,10.70
2022-09-24T02:49:41.490Z,10.80
2022-09-24T02:52:10.328Z,10.70
2022-09-24T02:54:38.396Z,10.70
2022-09-24T02:57:06.685Z,10.60
2022-09-24T02:59:34.830Z,10.60
2022-09-24T03:02:02.975Z,10.70
2022-09-24T03:04:32.445Z,10.70
2022-09-24T03:07:00.555Z,10.60
2022-09-24T03:09:28.681Z,10.60
2022-09-24T03:11:57.432Z,10.60
2022-09-24T03:14:26.128Z,10.60
2022-09-24T03:16:54.121Z,10.80
2022-09-24T03:19:22.152Z,10.80
2022-09-24T03:21:51.488Z,10.70
2022-09-24T03:24:19.444Z,10.70
2022-09-24T03:26:47.422Z,10.70
2022-09-24T03:29:15.515Z,10.70
2022-09-24T03:31:42.701Z,10.80
2022-09-24T03:34:10.741Z,11.00
2022-09-24T03:36:39.379Z,10.80
2022-09-24T03:39:08.799Z,10.80
2022-09-24T03:41:36.762Z,10.90
2022-09-24T03:44:04.995Z,10.80
2022-09-24T03:46:32.986Z,10.90
2022-09-24T03:49:01.273Z,10.80
2022-09-24T03:51:29.237Z,10.80
2022-09-24T03:53:57.245Z,10.80
2022-09-24T03:56:26.531Z,10.60
2022-09-24T03:58:55.370Z,10.80
2022-09-24T04:01:23.370Z,10.80
2022-09-24T04:03:51.955Z,10.80
2022-09-24T04:06:24.997Z,10.80
2022-09-24T04:08:54.066Z,10.70
2022-09-24T04:11:22.081Z,10.70
2022-09-24T04:13:51.657Z,10.70
2022-09-24T04:16:19.621Z,10.70
2022-09-24T04:18:48.014Z,10.70
2022-09-24T04:21:16.002Z,10.60
2022-09-24T04:23:44.514Z,10.60
2022-09-24T04:26:12.557Z,10.60
2022-09-24T04:28:40.563Z,10.80
2022-09-24T04:31:09.984Z,10.70
2022-09-24T04:33:38.029Z,10.80
2022-09-24T04:36:05.977Z,10.80
2022-09-24T04:38:33.959Z,10.70
2022-09-24T04:41:07.200Z,10.80
2022-09-24T04:43:37.010Z,10.80
2022-09-24T04:46:05.510Z,10.90
2022-09-24T04:48:38.405Z,11.00
2022-09-24T04:51:07.062Z,10.90
2022-09-24T04:53:35.175Z,10.90
2022-09-24T04:56:03.688Z,10.90
2022-09-24T04:58:32.040Z,11.00
2022-09-24T05:01:03.977Z,11.00
2022-09-24T05:03:33.185Z,10.90
2022-09-24T05:06:02.944Z,11.00
2022-09-24T05:08:30.871Z,11.00
2022-09-24T05:10:58.838Z,11.00
2022-09-24T05:13:26.812Z,11.00
2022-09-24T05:15:54.952Z,11.00
2022-09-24T05:18:22.914Z,10.90
2022-09-24T05:20:50.853Z,10.90
2022-09-24T05:23:20.155Z,10.90
2022-09-24T05:26:05.658Z,11.00
2022-09-24T05:28:35.370Z,11.00
2022-09-24T05:31:03.438Z,11.00
2022-09-24T05:33:31.571Z,11.00
2022-09-24T05:35:59.651Z,11.00
2022-09-24T05:38:29.963Z,11.00
2022-09-24T05:40:58.053Z,11.10
2022-09-24T05:43:27.766Z,11.00
2022-09-24T05:45:58.578Z,11.10
2022-09-24T05:48:26.942Z,11.10
2022-09-24T05:50:55.717Z,11.10
2022-09-24T05:53:24.045Z,11.10
2022-09-24T05:55:53.349Z,11.20
2022-09-24T05:58:21.723Z,11.20
2022-09-24T06:00:49.916Z,11.40
2022-09-24T06:03:19.415Z,11.20
2022-09-24T06:05:49.655Z,11.30
2022-09-24T06:08:19.163Z,11.30
2022-09-24T06:10:48.613Z,11.30
2022-09-24T06:13:20.962Z,11.30
2022-09-24T06:15:49.018Z,11.30
2022-09-24T06:18:17.130Z,11.30
2022-09-24T06:20:46.988Z,11.40
2022-09-24T06:23:14.951Z,11.40
2022-09-24T06:25:42.843Z,11.50
2022-09-24T06:28:10.813Z,11.50
2022-09-24T06:30:41.368Z,11.50
2022-09-24T06:33:11.389Z,11.60
2022-09-24T06:35:40.678Z,11.60
2022-09-24T06:38:11.818Z,11.70
2022-09-24T06:40:40.322Z,11.70
2022-09-24T06:43:08.868Z,11.70
2022-09-24T06:45:36.790Z,11.70
2022-09-24T06:48:07.198Z,11.60
2022-09-24T06:50:36.265Z,11.70
2022-09-24T06:53:06.607Z,11.80
2022-09-24T06:55:35.565Z,11.90
2022-09-24T06:58:05.509Z,11.90
2022-09-24T07:00:34.020Z,12.00
2022-09-24T07:03:02.057Z,12.00
2022-09-24T07:05:31.359Z,11.90
2022-09-24T07:07:59.264Z,11.90
2022-09-24T07:10:27.444Z,12.00
2022-09-24T07:12:55.414Z,12.00
2022-09-24T07:15:23.384Z,12.00
2022-09-24T07:17:56.247Z,11.90
2022-09-24T07:20:24.708Z,12.10
2022-09-24T07:22:54.020Z,12.10
2022-09-24T07:25:21.966Z,12.10
2022-09-24T07:27:50.161Z,12.10
2022-09-24T07:30:19.854Z,12.10
2022-09-24T07:32:48.320Z,12.10
2022-09-24T07:35:16.431Z,12.20
2022-09-24T07:37:44.363Z,12.20
2022-09-24T07:40:14.107Z,12.30
2022-09-24T07:42:48.428Z,12.30
2022-09-24T07:45:17.221Z,12.40
2022-09-24T07:47:45.328Z,12.50
2022-09-24T07:50:13.757Z,12.50
2022-09-24T07:52:41.864Z,12.60
2022-09-24T07:55:10.190Z,12.50
2022-09-24T07:57:40.307Z,12.60
2022-09-24T08:00:09.565Z,12.60
2022-09-24T08:02:37.671Z,12.70
2022-09-24T08:05:06.171Z,12.60
2022-09-24T08:07:34.087Z,12.60
2022-09-24T08:10:02.989Z,12.50
2022-09-24T08:12:30.960Z,12.60
2022-09-24T08:15:00.223Z,12.60
2022-09-24T08:17:28.243Z,12.70
2022-09-24T08:19:57.086Z,12.70
2022-09-24T08:22:26.359Z,12.80
2022-09-24T08:24:55.018Z,12.80
2022-09-24T08:27:23.864Z,12.90
2022-09-24T08:29:51.947Z,12.90
2022-09-24T08:32:21.274Z,13.00
2022-09-24T08:34:49.251Z,12.90
2022-09-24T08:37:17.213Z,12.90
2022-09-24T08:39:45.187Z,13.00
2022-09-24T08:42:16.133Z,13.00
2022-09-24T08:45:03.374Z,13.00
2022-09-24T08:47:45.690Z,13.00
2022-09-24T08:50:17.511Z,13.00
2022-09-24T08:53:06.561Z,13.10
2022-09-24T08:55:38.734Z,13.20
2022-09-24T08:58:22.621Z,13.20
2022-09-24T09:00:56.346Z,13.20
2022-09-24T09:03:35.179Z,13.10
2022-09-24T09:06:06.086Z,13.10
2022-09-24T09:09:06.144Z,13.30
2022-09-24T09:11:37.096Z,13.30
2022-09-24T09:14:10.851Z,13.40
2022-09-24T09:16:45.420Z,13.40
2022-09-24T09:19:17.909Z,13.40
2022-09-24T09:21:52.680Z,13.40
2022-09-24T09:24:23.414Z,13.40
2022-09-24T09:26:55.276Z,13.60
2022-09-24T09:29:26.497Z,13.60
2022-09-24T09:32:04.605Z,13.50
2022-09-24T09:34:55.187Z,13.50
2022-09-24T09:37:30.285Z,13.50
2022-09-24T09:40:10.878Z,13.50
2022-09-24T09:42:40.428Z,13.60
2022-09-24T09:45:25.444Z,13.70
2022-09-24T09:47:57.626Z,13.80
2022-09-24T09:50:30.584Z,13.90
2022-09-24T09:52:58.565Z,14.00
2022-09-24T09:55:28.864Z,14.10
2022-09-24T09:58:12.244Z,14.20
2022-09-24T10:00:40.203Z,14.40
2022-09-24T10:03:21.783Z,14.50
2022-09-24T10:05:56.421Z,14.60
2022-09-24T10:08:25.430Z,14.70
2022-09-24T10:10:57.162Z,15.00
2022-09-24T10:13:26.181Z,14.90
2022-09-24T10:15:58.405Z,15.00
2022-09-24T10:18:32.804Z,15.10
2022-09-24T10:21:04.207Z,15.20
2022-09-24T10:23:37.448Z,15.30
2022-09-24T10:26:07.114Z,15.40
2022-09-24T10:28:55.621Z,15.40
2022-09-24T10:31:25.448Z,15.50
2022-09-24T10:33:56.797Z,15.70
2022-09-24T10:36:28.262Z,15.70
2022-09-24T10:39:04.816Z,15.90
2022-09-24T10:41:33.346Z,15.80
2022-09-24T10:44:05.427Z,16.00
2022-09-24T10:46:56.093Z,16.20
2022-09-24T10:49:37.846Z,16.30
2022-09-24T10:52:14.914Z,16.30
2022-09-24T10:54:50.726Z,16.50
2022-09-24T10:57:30.248Z,16.60
2022-09-24T11:00:05.110Z,16.70
2022-09-24T11:02:58.240Z,16.70
2022-09-24T11:05:31.539Z,16.80
2022-09-24T11:08:17.486Z,16.80
2022-09-24T11:10:56.757Z,16.90
2022-09-24T11:13:32.876Z,17.00
2022-09-24T11:16:27.609Z,17.40
2022-09-24T11:19:02.101Z,17.40
2022-09-24T11:21:45.305Z,17.60
2022-09-24T11:24:39.420Z,17.70
2022-09-24T11:27:24.313Z,17.80
2022-09-24T11:30:01.828Z,17.90
2022-09-24T11:32:36.247Z,18.00
2022-09-24T11:35:25.655Z,17.90
2022-09-24T11:38:01.051Z,17.90
2022-09-24T11:40:56.107Z,18.10
2022-09-24T11:43:50.833Z,18.20
2022-09-24T11:46:32.293Z,18.20
2022-09-24T11:49:22.797Z,18.30
2022-09-24T11:54:24.785Z,18.30
2022-09-24T11:56:59.426Z,18.40
2022-09-24T11:59:38.077Z,18.40
2022-09-24T12:02:13.936Z,18.40
2022-09-24T12:04:50.966Z,18.30
2022-09-24T12:07:25.654Z,18.20
2022-09-24T12:10:00.004Z,18.40
2022-09-24T12:12:33.849Z,18.30
2022-09-24T12:15:06.151Z,18.30
2022-09-24T12:17:40.040Z,18.20
2022-09-24T12:20:18.076Z,18.20
2022-09-24T12:22:49.213Z,18.00
2022-09-24T12:25:18.503Z,18.00
2022-09-24T12:27:49.115Z,17.80
2022-09-24T12:30:46.673Z,17.70
2022-09-24T12:33:21.139Z,17.60
2022-09-24T12:36:04.368Z,17.50
2022-09-24T12:38:36.481Z,17.40
2022-09-24T12:41:32.493Z,17.30
2022-09-24T12:44:07.466Z,17.30
2022-09-24T12:46:42.427Z,17.00
2022-09-24T12:49:25.261Z,17.00
2022-09-24T12:51:53.955Z,16.80
2022-09-24T12:54:26.764Z,16.80
2022-09-24T12:57:07.046Z,16.60
2022-09-24T12:59:47.912Z,16.60
2022-09-24T13:02:18.783Z,16.50
2022-09-24T13:04:52.961Z,16.50
2022-09-24T13:07:32.770Z,16.40
2022-09-24T13:10:13.283Z,16.30
2022-09-24T13:12:41.515Z,16.20
2022-09-24T13:15:28.656Z,16.10
2022-09-24T13:18:05.343Z,16.10
2022-09-24T13:20:34.647Z,16.20
2022-09-24T13:23:15.943Z,16.20
2022-09-24T13:25:56.076Z,16.10
2022-09-24T13:28:35.793Z,16.10
2022-09-24T13:31:26.604Z,16.10
2022-09-24T13:33:56.974Z,16.20
2022-09-24T13:36:31.294Z,16.20
2022-09-24T13:39:05.074Z,16.30
2022-09-24T13:41:45.616Z,16.30
2022-09-24T13:44:19.850Z,16.50
2022-09-24T13:46:54.405Z,16.50
2022-09-24T13:49:24.533Z,16.50
2022-09-24T13:52:00.862Z,16.50
2022-09-24T13:54:35.815Z,16.40
2022-09-24T13:57:12.981Z,16.60
2022-09-24T13:59:41.269Z,16.50
2022-09-24T14:02:26.860Z,16.50
2022-09-24T14:04:57.598Z,16.40
2022-09-24T14:07:26.876Z,16.30
2022-09-24T14:10:06.403Z,16.50
2022-09-24T14:12:34.541Z,16.60
2022-09-24T14:15:06.111Z,16.70
2022-09-24T14:17:35.668Z,16.60
2022-09-24T14:20:04.067Z,16.60
2022-09-24T14:22:36.299Z,16.60
2022-09-24T14:25:09.014Z,16.50
2022-09-24T14:27:42.359Z,16.50
2022-09-24T14:30:20.333Z,16.50
2022-09-24T14:32:54.012Z,16.50
2022-09-24T14:35:29.896Z,16.50
2022-09-24T14:38:04.385Z,16.60
2022-09-24T14:40:41.112Z,16.60
2022-09-24T14:43:18.874Z,16.60
2022-09-24T14:45:48.775Z,16.30
2022-09-24T14:48:29.425Z,16.10
2022-09-24T14:50:57.630Z,16.10
2022-09-24T14:53:28.994Z,16.10
2022-09-24T14:55:57.540Z,16.20
2022-09-24T14:58:37.392Z,16.10
2022-09-24T15:01:13.911Z,16.10
2022-09-24T15:03:48.623Z,16.00
2022-09-24T15:06:21.509Z,15.90
2022-09-24T15:09:00.652Z,15.90
2022-09-24T15:11:31.421Z,15.80
2022-09-24T15:14:01.265Z,15.70
2022-09-24T15:16:32.623Z,15.70
2022-09-24T15:19:15.378Z,15.80
2022-09-24T15:21:43.519Z,15.80
2022-09-24T15:24:12.173Z,15.80
2022-09-24T15:26:43.467Z,15.80
2022-09-24T15:29:18.690Z,15.80
2022-09-24T15:31:46.707Z,15.80
2022-09-24T15:34:19.756Z,15.80
2022-09-24T15:36:48.536Z,15.80
2022-09-24T15:39:19.068Z,15.80
2022-09-24T15:41:47.078Z,15.80
2022-09-24T15:44:21.925Z,15.70
2022-09-24T15:46:51.218Z,15.70
2022-09-24T15:49:22.222Z,15.70
2022-09-24T15:51:52.135Z,15.80
2022-09-24T15:54:21.697Z,15.80
2022-09-24T15:56:52.370Z,15.80
2022-09-24T15:59:21.626Z,15.90
2022-09-24T16:01:52.433Z,16.00
2022-09-24T16:04:21.942Z,15.90
2022-09-24T16:06:50.613Z,15.90
2022-09-24T16:09:18.701Z,15.90
2022-09-24T16:11:46.844Z,15.90
2022-09-24T16:14:14.891Z,15.90
2022-09-24T16:16:43.010Z,15.90
2022-09-24T16:19:12.506Z,15.90
2022-09-24T16:21:48.581Z,15.90
2022-09-24T16:24:16.734Z,15.90
2022-09-24T16:26:44.725Z,15.90
2022-09-24T16:29:12.945Z,15.80
2022-09-24T16:31:41.056Z,15.70
2022-09-24T16:34:09.106Z,15.90
2022-09-24T16:36:37.148Z,16.00
2022-09-24T16:39:06.598Z,15.90
2022-09-24T16:41:36.957Z,15.80
2022-09-24T16:44:06.880Z,15.70
2022-09-24T16:46:35.003Z,15.60
2022-09-24T16:49:03.414Z,15.70
2022-09-24T16:51:31.472Z,15.60
2022-09-24T16:53:59.763Z,15.50
2022-09-24T16:56:29.246Z,15.40
2022-09-24T16:58:58.060Z,15.40
2022-09-24T17:01:26.414Z,15.40
2022-09-24T17:03:55.577Z,15.30
2022-09-24T17:06:25.039Z,15.20
2022-09-24T17:09:11.069Z,15.20
2022-09-24T17:11:42.055Z,15.20
2022-09-24T17:14:12.414Z,15.20
2022-09-24T17:16:40.947Z,15.20
2022-09-24T17:19:09.850Z,15.30
2022-09-24T17:21:39.003Z,15.10
2022-09-24T17:24:07.507Z,15.10
2022-09-24T17:26:36.075Z,15.00
2022-09-24T17:29:05.845Z,15.10
2022-09-24T17:31:35.601Z,15.00
2022-09-24T17:34:05.033Z,15.00
2022-09-24T17:36:35.002Z,14.90
2022-09-24T17:39:03.692Z,14.90
2022-09-24T17:41:31.716Z,15.00
2022-09-24T17:44:00.268Z,14.70
2022-09-24T17:46:31.467Z,14.50
2022-09-24T17:49:01.142Z,14.50
2022-09-24T17:51:32.637Z,14.50
2022-09-24T17:54:02.528Z,14.50
2022-09-24T17:56:33.209Z,14.50
2022-09-24T17:59:01.924Z,14.40
2022-09-24T18:01:33.765Z,14.30
2022-09-24T18:04:01.935Z,14.50
2022-09-24T18:06:33.143Z,14.30
2022-09-24T18:09:02.171Z,14.40
2022-09-24T18:11:32.719Z,14.50
2022-09-24T18:14:02.643Z,14.70
2022-09-24T18:16:33.721Z,14.70
2022-09-24T18:19:03.370Z,14.50
2022-09-24T18:21:32.637Z,14.50
2022-09-24T18:24:01.804Z,14.50
2022-09-24T18:26:32.462Z,14.40
2022-09-24T18:29:01.836Z,14.40
2022-09-24T18:31:32.731Z,14.30
2022-09-24T18:34:05.756Z,14.40
2022-09-24T18:36:35.213Z,14.30
2022-09-24T18:39:03.523Z,14.30
2022-09-24T18:41:32.637Z,14.30
2022-09-24T18:44:03.701Z,14.30
2022-09-24T18:46:35.354Z,14.20
2022-09-24T18:49:06.363Z,14.00
2022-09-24T18:51:36.449Z,14.00
2022-09-24T18:54:07.115Z,14.00
2022-09-24T18:56:36.313Z,14.00
2022-09-24T18:59:09.820Z,14.30
2022-09-24T19:01:40.057Z,14.20
2022-09-24T19:04:10.888Z,14.00
2022-09-24T19:06:40.856Z,14.00
2022-09-24T19:09:09.887Z,14.00
2022-09-24T19:11:38.159Z,13.90
2022-09-24T19:14:06.592Z,14.00
2022-09-24T19:16:34.953Z,13.90
2022-09-24T19:19:04.361Z,14.00
2022-09-24T19:21:32.628Z,14.10
2022-09-24T19:24:00.969Z,14.00
2022-09-24T19:26:30.542Z,14.10
2022-09-24T19:28:59.432Z,14.00
2022-09-24T19:31:30.224Z,14.00
2022-09-24T19:34:00.143Z,14.10
2022-09-24T19:36:29.831Z,14.10
2022-09-24T19:38:57.947Z,14.20
2022-09-24T19:41:27.222Z,14.30
2022-09-24T19:43:57.916Z,14.20
2022-09-24T19:46:27.655Z,14.10
2022-09-24T19:48:57.665Z,14.00
2022-09-24T19:51:27.880Z,14.00
2022-09-24T19:53:59.688Z,14.00
2022-09-24T19:56:28.342Z,14.00
2022-09-24T19:58:58.462Z,14.00
2022-09-24T20:01:29.350Z,14.00
2022-09-24T20:03:58.386Z,14.00
2022-09-24T20:06:31.306Z,14.00
2022-09-24T20:09:00.897Z,13.90
2022-09-24T20:11:32.448Z,13.90
2022-09-24T20:14:01.188Z,13.80
2022-09-24T20:16:35.226Z,13.70
2022-09-24T20:19:05.253Z,13.80
2022-09-24T20:21:37.670Z,13.70
2022-09-24T20:24:10.873Z,13.60
2022-09-24T20:26:59.591Z,13.70
2022-09-24T20:29:27.980Z,13.60
2022-09-24T20:31:56.996Z,13.50
2022-09-24T20:34:28.750Z,13.40
2022-09-24T20:36:59.774Z,13.40
2022-09-24T20:39:34.898Z,13.40
2022-09-24T20:42:06.360Z,13.30
2022-09-24T20:44:34.707Z,13.40
2022-09-24T20:47:02.893Z,13.30
2022-09-24T20:49:33.302Z,13.30
2022-09-24T20:52:03.247Z,13.20
2022-09-24T20:54:34.899Z,13.40
2022-09-24T20:57:03.294Z,13.20
2022-09-24T20:59:31.479Z,13.10
2022-09-24T21:01:59.711Z,13.00
2022-09-24T21:04:27.831Z,13.00
2022-09-24T21:06:58.657Z,12.90
2022-09-24T21:09:26.672Z,12.90
2022-09-24T21:11:57.382Z,13.00
2022-09-24T21:14:26.243Z,12.90
2022-09-24T21:16:55.327Z,12.80
2022-09-24T21:19:31.819Z,12.80
2022-09-24T21:22:01.712Z,12.70
2022-09-24T21:24:31.611Z,12.70
2022-09-24T21:27:03.026Z,12.70
2022-09-24T21:29:35.621Z,12.70
2022-09-24T21:32:07.226Z,12.70
2022-09-24T21:34:35.678Z,12.70
2022-09-24T21:37:04.067Z,12.70
2022-09-24T21:39:32.453Z,12.60
2022-09-24T21:42:06.937Z,12.80
2022-09-24T21:44:35.496Z,12.80
2022-09-24T21:47:04.122Z,12.80
2022-09-24T21:49:36.680Z,12.80
2022-09-24T21:52:06.754Z,12.80
2022-09-24T21:54:36.600Z,12.80
2022-09-24T21:57:06.133Z,13.00
2022-09-24T21:59:51.617Z,13.00
2022-09-24T22:02:20.436Z,13.10
2022-09-24T22:04:48.510Z,13.10
2022-09-24T22:07:17.134Z,13.00
2022-09-24T22:09:45.421Z,13.10
2022-09-24T22:12:15.220Z,13.00
2022-09-24T22:14:45.538Z,12.90
2022-09-24T22:17:14.192Z,12.80
2022-09-24T22:19:42.914Z,12.70
2022-09-24T22:22:11.022Z,12.70
2022-09-24T22:24:39.393Z,12.70
2022-09-24T22:27:07.742Z,12.70
2022-09-24T22:29:37.175Z,12.70
2022-09-24T22:32:05.605Z,12.60
2022-09-24T22:34:51.097Z,12.50
2022-09-24T22:37:19.114Z,12.30
2022-09-24T22:39:47.164Z,12.30
2022-09-24T22:42:15.278Z,12.30
2022-09-24T22:44:44.763Z,12.40
2022-09-24T22:47:12.833Z,12.30
2022-09-24T22:49:41.054Z,12.50
2022-09-24T22:52:09.119Z,12.40
2022-09-24T22:54:37.182Z,12.40
2022-09-24T22:57:05.295Z,12.30
2022-09-24T22:59:34.052Z,12.40
2022-09-24T23:02:03.553Z,12.40
2022-09-24T23:04:32.613Z,12.30
2022-09-24T23:07:00.675Z,12.40
2022-09-24T23:09:28.893Z,12.30
2022-09-24T23:11:57.197Z,12.30
2022-09-24T23:14:25.351Z,12.20
2022-09-24T23:16:53.645Z,12.30
2022-09-24T23:19:23.026Z,12.30
2022-09-24T23:21:51.092Z,12.20
2022-09-24T23:24:21.863Z,12.10
2022-09-24T23:26:51.199Z,12.20
2022-09-24T23:29:19.331Z,12.20
2022-09-24T23:31:47.419Z,12.10
2022-09-24T23:34:15.559Z,12.10
2022-09-24T23:36:45.318Z,12.20
2022-09-24T23:39:13.681Z,12.20
2022-09-24T23:41:41.930Z,12.10
2022-09-24T23:44:10.546Z,12.10
2022-09-24T23:46:38.728Z,12.10
2022-09-24T23:49:06.849Z,12.10
2022-09-24T23:51:34.811Z,12.10
2022-09-24T23:54:04.551Z,12.00
2022-09-24T23:56:33.005Z,12.00
2022-09-24T23:59:01.018Z,12.10
